createdAt,value
2023-04-02T00:01:43.835Z,70.23
2023-04-02T00:04:19.030Z,69.90
2023-04-02T00:06:45.505Z,69.85
2023-04-02T00:09:14.969Z,69.00
2023-04-02T00:11:44.762Z,69.18
2023-04-02T00:14:27.501Z,68.62
2023-04-02T00:16:55.770Z,68.38
2023-04-02T00:19:33.686Z,69.46
2023-04-02T00:22:02.093Z,69.73
2023-04-02T00:24:28.607Z,69.68
2023-04-02T00:26:55.788Z,70.23
2023-04-02T00:29:22.333Z,69.80
2023-04-02T00:31:51.623Z,69.80
2023-04-02T00:34:25.826Z,69.31
2023-04-02T00:36:52.562Z,69.69
2023-04-02T00:39:27.893Z,70.63
2023-04-02T00:41:56.368Z,71.22
2023-04-02T00:44:22.954Z,70.32
2023-04-02T00:46:51.058Z,69.89
2023-04-02T00:49:23.434Z,70.54
2023-04-02T00:51:55.156Z,71.10
2023-04-02T00:54:25.278Z,70.77
2023-04-02T00:56:57.120Z,71.31
2023-04-02T00:59:30.902Z,71.08
2023-04-02T01:02:19.907Z,71.44
2023-04-02T01:04:58.950Z,71.50
2023-04-02T01:07:49.926Z,71.29
2023-04-02T01:11:04.052Z,71.61
2023-04-02T01:13:42.229Z,70.40
2023-04-02T01:16:31.025Z,71.31
2023-04-02T01:19:32.293Z,70.68
2023-04-02T01:22:25.822Z,71.77
2023-04-02T01:24:56.404Z,72.49
2023-04-02T01:27:29.826Z,73.87
2023-04-02T01:29:58.941Z,73.97
2023-04-02T01:32:29.211Z,74.78
2023-04-02T01:34:57.180Z,75.77
2023-04-02T01:37:35.475Z,76.10
2023-04-02T01:40:20.395Z,76.66
2023-04-02T01:43:25.674Z,76.59
2023-04-02T01:45:52.447Z,77.73
2023-04-02T01:48:22.841Z,77.26
2023-04-02T01:50:51.692Z,77.77
2023-04-02T01:53:21.036Z,78.56
2023-04-02T01:55:53.561Z,78.67
2023-04-02T01:58:24.661Z,77.71
2023-04-02T02:01:04.719Z,77.90
2023-04-02T02:03:31.266Z,79.07
2023-04-02T02:05:58.496Z,78.61
2023-04-02T02:08:32.760Z,78.83
2023-04-02T02:10:59.332Z,79.44
2023-04-02T02:13:25.873Z,80.12
2023-04-02T02:15:52.485Z,80.15
2023-04-02T02:18:23.147Z,80.57
2023-04-02T02:20:52.007Z,80.76
2023-04-02T02:23:22.684Z,81.09
2023-04-02T02:25:49.357Z,80.69
2023-04-02T02:28:21.286Z,81.98
2023-04-02T02:31:02.660Z,81.22
2023-04-02T02:33:37.136Z,81.70
2023-04-02T02:36:16.613Z,81.04
2023-04-02T02:39:07.047Z,80.93
2023-04-02T02:41:41.291Z,81.49
2023-04-02T02:44:10.463Z,81.51
2023-04-02T02:46:46.489Z,80.88
2023-04-02T02:49:18.077Z,81.58
2023-04-02T02:51:48.143Z,81.84
2023-04-02T02:54:17.327Z,81.99
2023-04-02T02:56:50.540Z,81.25
2023-04-02T02:59:18.706Z,81.30
2023-04-02T03:01:46.962Z,81.46
2023-04-02T03:04:19.099Z,81.60
2023-04-02T03:06:48.901Z,82.33
2023-04-02T03:09:37.304Z,81.78
2023-04-02T03:12:29.610Z,82.28
2023-04-02T03:15:23.758Z,83.75
2023-04-02T03:18:06.656Z,84.21
2023-04-02T03:20:44.426Z,84.00
2023-04-02T03:23:22.985Z,83.33
2023-04-02T03:26:01.405Z,82.79
2023-04-02T03:28:32.568Z,84.23
2023-04-02T03:31:06.593Z,84.59
2023-04-02T03:33:40.715Z,83.56
2023-04-02T03:36:19.251Z,83.47
2023-04-02T03:38:52.323Z,83.70
2023-04-02T03:41:25.977Z,83.64
2023-04-02T03:44:00.056Z,83.66
2023-04-02T03:46:44.659Z,84.90
2023-04-02T03:49:19.226Z,84.51
2023-04-02T03:52:04.818Z,83.77
2023-04-02T03:54:31.678Z,83.63
2023-04-02T03:56:59.360Z,83.54
2023-04-02T03:59:38.581Z,83.12
2023-04-02T04:02:45.426Z,83.87
2023-04-02T04:05:23.163Z,83.80
2023-04-02T04:07:53.659Z,84.77
2023-04-02T04:10:25.998Z,85.12
2023-04-02T04:12:56.488Z,85.22
2023-04-02T04:15:27.412Z,85.25
2023-04-02T04:17:53.926Z,84.73
2023-04-02T04:20:25.943Z,84.54
2023-04-02T04:22:52.607Z,84.60
2023-04-02T04:25:28.274Z,84.40
2023-04-02T04:28:15.893Z,84.70
2023-04-02T04:31:03.784Z,84.13
2023-04-02T04:33:40.477Z,84.26
2023-04-02T04:36:21.161Z,84.52
2023-04-02T04:38:51.077Z,84.29
2023-04-02T04:41:23.873Z,84.11
2023-04-02T04:44:11.738Z,84.45
2023-04-02T04:46:45.147Z,84.00
2023-04-02T04:49:18.273Z,83.41
2023-04-02T04:52:08.948Z,84.03
2023-04-02T04:54:39.026Z,83.56
2023-04-02T04:57:17.640Z,83.77
2023-04-02T04:59:58.586Z,84.28
2023-04-02T05:02:32.245Z,84.76
2023-04-02T05:05:00.631Z,84.03
2023-04-02T05:07:32.626Z,84.43
2023-04-02T05:10:03.472Z,83.99
2023-04-02T05:12:51.218Z,84.07
2023-04-02T05:15:29.347Z,84.33
2023-04-02T05:18:23.073Z,83.24
2023-04-02T05:21:13.916Z,79.00
2023-04-02T05:23:49.726Z,73.17
2023-04-02T05:26:21.846Z,66.59
2023-04-02T05:29:00.747Z,62.02
2023-04-02T05:31:49.242Z,57.98
2023-04-02T05:34:25.478Z,56.47
2023-04-02T05:36:51.974Z,53.09
2023-04-02T05:39:22.945Z,50.46
2023-04-02T05:42:00.726Z,48.09
2023-04-02T05:44:30.989Z,47.58
2023-04-02T05:47:05.522Z,48.34
2023-04-02T05:49:50.076Z,46.46
2023-04-02T05:52:27.421Z,47.01
2023-04-02T05:55:06.317Z,44.75
2023-04-02T05:57:46.817Z,44.08
2023-04-02T06:00:23.610Z,43.43
2023-04-02T06:03:02.236Z,42.64
2023-04-02T06:05:36.825Z,40.11
2023-04-02T06:08:10.781Z,39.88
2023-04-02T06:10:53.553Z,41.12
2023-04-02T06:13:20.431Z,42.14
2023-04-02T06:15:47.837Z,43.76
2023-04-02T06:18:27.200Z,43.90
2023-04-02T06:20:54.672Z,43.21
2023-04-02T06:23:47.152Z,43.26
2023-04-02T06:26:22.747Z,43.16
2023-04-02T06:28:56.142Z,41.48
2023-04-02T06:31:34.461Z,43.12
2023-04-02T06:34:01.116Z,39.87
2023-04-02T06:36:28.069Z,41.73
2023-04-02T06:38:57.228Z,40.41
2023-04-02T06:41:25.281Z,40.05
2023-04-02T06:44:07.187Z,38.99
2023-04-02T06:46:45.584Z,40.88
2023-04-02T06:49:28.428Z,39.01
2023-04-02T06:51:56.347Z,38.65
2023-04-02T06:54:22.930Z,39.05
2023-04-02T06:56:54.561Z,39.40
2023-04-02T06:59:21.108Z,38.75
2023-04-02T07:02:27.133Z,41.45
2023-04-02T07:05:01.970Z,39.00
2023-04-02T07:07:28.515Z,39.00
2023-04-02T07:09:54.995Z,38.48
2023-04-02T07:12:25.201Z,39.71
2023-04-02T07:14:52.390Z,38.53
2023-04-02T07:17:19.661Z,38.35
2023-04-02T07:19:47.089Z,39.29
2023-04-02T07:22:13.514Z,41.13
2023-04-02T07:24:39.950Z,40.39
2023-04-02T07:27:06.469Z,38.54
2023-04-02T07:29:32.906Z,37.67
2023-04-02T07:31:59.340Z,38.87
2023-04-02T07:34:25.795Z,37.57
2023-04-02T07:36:52.314Z,38.51
2023-04-02T07:39:18.746Z,39.49
2023-04-02T07:42:00.190Z,37.18
2023-04-02T07:44:27.287Z,35.57
2023-04-02T07:46:54.133Z,34.49
2023-04-02T07:49:21.162Z,35.29
2023-04-02T07:51:47.620Z,36.83
2023-04-02T07:54:14.104Z,36.92
2023-04-02T07:56:40.571Z,36.18
2023-04-02T07:59:07.079Z,37.64
2023-04-02T08:01:33.515Z,35.71
2023-04-02T08:04:00.034Z,34.62
2023-04-02T08:06:26.468Z,35.83
2023-04-02T08:08:53.090Z,36.72
2023-04-02T08:11:19.859Z,34.69
2023-04-02T08:13:46.691Z,36.41
2023-04-02T08:16:13.455Z,34.87
2023-04-02T08:18:40.269Z,34.66
2023-04-02T08:21:09.061Z,35.20
2023-04-02T08:23:36.244Z,34.56
2023-04-02T08:26:03.406Z,33.74
2023-04-02T08:28:29.985Z,35.21
2023-04-02T08:30:56.532Z,35.56
2023-04-02T08:33:23.106Z,34.88
2023-04-02T08:35:50.725Z,36.78
2023-04-02T08:38:19.131Z,36.50
2023-04-02T08:40:49.137Z,36.01
2023-04-02T08:43:30.802Z,36.19
2023-04-02T08:46:21.725Z,36.52
2023-04-02T08:48:53.915Z,37.00
2023-04-02T08:51:27.664Z,36.58
2023-04-02T08:53:59.809Z,36.89
2023-04-02T08:56:33.531Z,37.61
2023-04-02T08:59:07.393Z,38.29
2023-04-02T09:01:33.836Z,35.30
2023-04-02T09:04:02.127Z,36.00
2023-04-02T09:06:29.446Z,36.84
2023-04-02T09:08:57.509Z,36.53
2023-04-02T09:11:25.279Z,36.86
2023-04-02T09:13:57.759Z,36.67
2023-04-02T09:16:39.324Z,35.94
2023-04-02T09:19:16.290Z,37.27
2023-04-02T09:22:16.359Z,35.83
2023-04-02T09:24:42.862Z,34.50
2023-04-02T09:27:21.977Z,35.31
2023-04-02T09:30:07.535Z,33.81
2023-04-02T09:32:55.970Z,33.99
2023-04-02T09:35:39.116Z,33.48
2023-04-02T09:38:11.717Z,34.59
2023-04-02T09:40:59.474Z,35.08
2023-04-02T09:43:28.825Z,34.25
2023-04-02T09:46:05.579Z,36.48
2023-04-02T09:48:38.322Z,34.15
2023-04-02T09:51:07.102Z,36.39
2023-04-02T09:53:41.866Z,34.41
2023-04-02T09:56:20.450Z,34.46
2023-04-02T09:59:05.344Z,36.35
2023-04-02T10:01:33.209Z,34.93
2023-04-02T10:04:00.238Z,36.65
2023-04-02T10:06:29.373Z,33.64
2023-04-02T10:08:56.062Z,33.25
2023-04-02T10:11:36.403Z,33.45
2023-04-02T10:14:21.525Z,32.34
2023-04-02T10:16:53.891Z,31.95
2023-04-02T10:19:23.125Z,33.61
2023-04-02T10:21:50.358Z,32.07
2023-04-02T10:24:17.330Z,32.27
2023-04-02T10:27:10.033Z,31.03
2023-04-02T10:29:48.387Z,27.05
2023-04-02T10:32:23.687Z,28.43
2023-04-02T10:35:03.508Z,31.97
2023-04-02T10:37:54.030Z,28.10
2023-04-02T10:41:00.536Z,33.03
2023-04-02T10:43:35.990Z,33.16
2023-04-02T10:46:12.421Z,31.35
2023-04-02T10:49:01.600Z,30.68
2023-04-02T10:51:37.177Z,31.86
2023-04-02T10:54:21.127Z,31.88
2023-04-02T10:56:51.391Z,33.12
2023-04-02T10:59:32.143Z,32.94
2023-04-02T11:02:03.854Z,32.41
2023-04-02T11:04:41.084Z,32.05
2023-04-02T11:07:22.625Z,33.81
2023-04-02T11:09:53.627Z,33.06
2023-04-02T11:12:51.607Z,34.68
2023-04-02T11:15:19.836Z,36.73
2023-04-02T11:17:47.164Z,36.25
2023-04-02T11:20:47.616Z,37.26
2023-04-02T11:23:18.487Z,37.27
2023-04-02T11:25:46.440Z,36.11
2023-04-02T11:28:20.008Z,37.52
2023-04-02T11:30:48.752Z,38.07
2023-04-02T11:33:43.088Z,38.00
2023-04-02T11:36:48.661Z,38.93
2023-04-02T11:39:51.659Z,37.19
2023-04-02T11:42:18.046Z,36.55
2023-04-02T11:44:44.969Z,37.43
2023-04-02T11:47:25.454Z,37.24
2023-04-02T11:49:54.762Z,36.41
2023-04-02T11:52:25.486Z,35.91
2023-04-02T11:55:14.661Z,36.42
2023-04-02T11:57:51.391Z,37.69
2023-04-02T12:00:51.504Z,36.83
2023-04-02T12:03:26.921Z,36.80
2023-04-02T12:06:29.574Z,37.60
2023-04-02T12:09:01.739Z,34.69
2023-04-02T12:11:37.774Z,34.65
2023-04-02T12:14:43.427Z,34.02
2023-04-02T12:17:39.512Z,34.10
2023-04-02T12:20:08.810Z,34.73
2023-04-02T12:22:39.048Z,34.12
2023-04-02T12:25:21.417Z,34.24
2023-04-02T12:27:48.545Z,35.29
2023-04-02T12:30:23.240Z,35.90
2023-04-02T12:32:50.323Z,35.77
2023-04-02T12:35:30.693Z,35.29
2023-04-02T12:37:57.173Z,34.90
2023-04-02T12:40:25.214Z,34.68
2023-04-02T12:42:51.765Z,35.91
2023-04-02T12:45:25.240Z,34.20
2023-04-02T12:47:53.159Z,34.87
2023-04-02T12:50:21.133Z,33.70
2023-04-02T12:52:51.076Z,36.01
2023-04-02T12:55:21.679Z,35.19
2023-04-02T12:57:48.312Z,34.90
2023-04-02T13:00:20.504Z,35.08
2023-04-02T13:02:50.648Z,33.15
2023-04-02T13:05:38.152Z,32.19
2023-04-02T13:08:05.072Z,32.43
2023-04-02T13:10:31.820Z,31.98
2023-04-02T13:13:00.704Z,32.03
2023-04-02T13:15:30.561Z,32.86
2023-04-02T13:18:15.449Z,33.04
2023-04-02T13:20:43.289Z,32.98
2023-04-02T13:23:31.134Z,32.78
2023-04-02T13:26:14.258Z,33.19
2023-04-02T13:28:40.730Z,34.43
2023-04-02T13:31:15.344Z,34.10
2023-04-02T13:33:41.863Z,34.44
2023-04-02T13:36:13.875Z,35.01
2023-04-02T13:38:40.743Z,36.77
2023-04-02T13:41:20.327Z,37.04
2023-04-02T13:43:47.107Z,37.11
2023-04-02T13:46:20.101Z,36.75
2023-04-02T13:48:46.738Z,36.50
2023-04-02T13:51:17.880Z,35.67
2023-04-02T13:53:47.120Z,34.39
2023-04-02T13:56:13.589Z,36.24
2023-04-02T13:58:40.107Z,37.09
2023-04-02T14:01:06.646Z,37.59
2023-04-02T14:03:33.187Z,37.19
2023-04-02T14:06:08.929Z,36.38
2023-04-02T14:09:02.986Z,36.70
2023-04-02T14:11:50.300Z,37.90
2023-04-02T14:14:31.991Z,38.00
2023-04-02T14:17:21.215Z,38.98
2023-04-02T14:20:21.005Z,40.05
2023-04-02T14:22:47.414Z,39.81
2023-04-02T14:25:43.005Z,40.05
2023-04-02T14:28:30.693Z,40.89
2023-04-02T14:31:24.732Z,40.26
2023-04-02T14:34:13.691Z,40.86
2023-04-02T14:36:59.563Z,40.47
2023-04-02T14:39:42.612Z,39.92
2023-04-02T14:42:30.226Z,39.58
2023-04-02T14:45:04.988Z,39.75
2023-04-02T14:47:55.895Z,39.77
2023-04-02T14:50:29.484Z,40.61
2023-04-02T14:53:01.829Z,41.08
2023-04-02T14:55:35.704Z,42.02
2023-04-02T14:58:09.649Z,42.31
2023-04-02T15:00:41.710Z,42.58
2023-04-02T15:03:17.922Z,42.66
2023-04-02T15:05:50.076Z,41.17
2023-04-02T15:08:24.412Z,41.46
2023-04-02T15:11:08.936Z,42.31
2023-04-02T15:13:42.951Z,43.70
2023-04-02T15:16:21.234Z,43.44
2023-04-02T15:18:52.894Z,43.55
2023-04-02T15:21:19.291Z,44.07
2023-04-02T15:23:57.882Z,43.75
2023-04-02T15:26:42.500Z,43.54
2023-04-02T15:29:44.563Z,44.51
2023-04-02T15:32:30.172Z,43.63
2023-04-02T15:35:05.621Z,43.57
2023-04-02T15:38:05.735Z,44.47
2023-04-02T15:40:50.604Z,45.28
2023-04-02T15:43:46.118Z,45.39
2023-04-02T15:46:29.966Z,45.81
2023-04-02T15:49:05.411Z,46.31
2023-04-02T15:51:40.931Z,46.33
2023-04-02T15:54:29.809Z,46.85
2023-04-02T15:57:21.797Z,46.96
2023-04-02T15:59:51.068Z,47.01
2023-04-02T16:02:29.637Z,47.61
2023-04-02T16:05:05.387Z,47.16
2023-04-02T16:07:53.161Z,47.47
2023-04-02T16:10:39.984Z,48.45
2023-04-02T16:13:31.898Z,48.08
2023-04-02T16:16:34.895Z,48.24
2023-04-02T16:19:02.438Z,48.86
2023-04-02T16:21:33.088Z,48.35
2023-04-02T16:23:59.705Z,48.21
2023-04-02T16:26:47.300Z,46.53
2023-04-02T16:29:22.398Z,45.80
2023-04-02T16:32:07.434Z,46.73
2023-04-02T16:35:24.780Z,46.76
2023-04-02T16:37:57.966Z,47.28
2023-04-02T16:41:07.058Z,48.88
2023-04-02T16:43:43.932Z,49.71
2023-04-02T16:46:39.083Z,50.07
2023-04-02T16:49:24.322Z,50.90
2023-04-02T16:52:32.323Z,51.83
2023-04-02T16:55:25.993Z,52.90
2023-04-02T16:58:28.670Z,52.07
2023-04-02T17:01:02.032Z,51.67
2023-04-02T17:03:43.625Z,53.42
2023-04-02T17:06:12.975Z,54.29
2023-04-02T17:08:44.126Z,55.20
2023-04-02T17:11:42.762Z,55.12
2023-04-02T17:14:30.902Z,55.58
2023-04-02T17:17:01.423Z,55.50
2023-04-02T17:19:29.708Z,55.82
2023-04-02T17:22:04.703Z,55.72
2023-04-02T17:24:42.639Z,56.94
2023-04-02T17:27:16.749Z,56.45
2023-04-02T17:29:48.353Z,57.08
2023-04-02T17:32:27.884Z,57.41
2023-04-02T17:34:54.529Z,58.22
2023-04-02T17:37:33.134Z,58.82
2023-04-02T17:40:25.180Z,59.15
2023-04-02T17:43:28.044Z,59.90
2023-04-02T17:45:56.854Z,60.36
2023-04-02T17:48:38.821Z,60.60
2023-04-02T17:51:05.212Z,61.72
2023-04-02T17:53:31.592Z,61.51
2023-04-02T17:56:29.682Z,62.43
2023-04-02T17:59:07.186Z,62.36
2023-04-02T18:01:36.602Z,62.14
2023-04-02T18:04:18.062Z,62.69
2023-04-02T18:07:06.013Z,63.23
2023-04-02T18:09:35.162Z,63.20
2023-04-02T18:12:01.810Z,63.46
2023-04-02T18:14:31.111Z,63.81
2023-04-02T18:17:15.752Z,63.87
2023-04-02T18:19:54.045Z,65.35
2023-04-02T18:22:37.889Z,65.02
2023-04-02T18:25:16.666Z,65.26
2023-04-02T18:27:58.215Z,65.46
2023-04-02T18:30:45.924Z,65.48
2023-04-02T18:33:30.922Z,65.45
2023-04-02T18:36:23.417Z,65.92
2023-04-02T18:39:01.991Z,66.01
2023-04-02T18:41:28.387Z,66.32
2023-04-02T18:44:14.827Z,66.66
2023-04-02T18:46:52.084Z,66.50
2023-04-02T18:49:43.429Z,67.06
2023-04-02T18:52:14.173Z,66.94
2023-04-02T18:54:51.422Z,67.94
2023-04-02T18:57:24.157Z,67.50
2023-04-02T19:00:04.754Z,67.97
2023-04-02T19:02:46.325Z,67.20
2023-04-02T19:05:30.776Z,67.76
2023-04-02T19:08:41.840Z,68.11
2023-04-02T19:11:18.566Z,68.52
2023-04-02T19:13:45.088Z,69.90
2023-04-02T19:16:17.438Z,69.67
2023-04-02T19:18:56.982Z,69.93
2023-04-02T19:21:29.265Z,69.38
2023-04-02T19:24:06.425Z,69.60
2023-04-02T19:26:39.854Z,70.25
2023-04-02T19:29:16.677Z,70.06
2023-04-02T19:32:04.711Z,69.34
2023-04-02T19:34:51.619Z,69.94
2023-04-02T19:37:41.126Z,70.10
2023-04-02T19:40:13.736Z,70.62
2023-04-02T19:42:45.070Z,70.36
2023-04-02T19:45:24.325Z,70.33
2023-04-02T19:47:50.904Z,71.27
2023-04-02T19:50:17.499Z,70.60
2023-04-02T19:52:43.946Z,72.21
2023-04-02T19:55:10.437Z,72.61
2023-04-02T19:57:37.011Z,72.89
2023-04-02T20:00:04.184Z,72.77
2023-04-02T20:02:30.689Z,73.15
2023-04-02T20:04:57.162Z,73.32
2023-04-02T20:07:23.644Z,72.92
2023-04-02T20:09:50.088Z,72.52
2023-04-02T20:12:16.531Z,73.62
2023-04-02T20:14:43.138Z,72.97
2023-04-02T20:17:09.580Z,72.92
2023-04-02T20:19:36.008Z,74.40
2023-04-02T20:22:02.505Z,74.21
2023-04-02T20:24:28.987Z,73.49
2023-04-02T20:26:55.444Z,73.75
2023-04-02T20:29:21.909Z,73.91
2023-04-02T20:31:48.394Z,73.74
2023-04-02T20:34:15.212Z,74.18
2023-04-02T20:36:41.753Z,74.40
2023-04-02T20:39:08.190Z,73.55
2023-04-02T20:41:34.772Z,74.60
2023-04-02T20:44:01.257Z,74.05
2023-04-02T20:46:27.752Z,74.24
2023-04-02T20:48:54.240Z,74.21
2023-04-02T20:51:20.877Z,74.76
2023-04-02T20:53:47.359Z,74.56
2023-04-02T20:56:16.427Z,75.23
2023-04-02T20:58:43.985Z,75.45
2023-04-02T21:01:22.389Z,74.81
2023-04-02T21:03:49.979Z,75.20
2023-04-02T21:06:19.140Z,75.80
2023-04-02T21:08:46.247Z,75.12
2023-04-02T21:11:13.227Z,75.91
2023-04-02T21:13:40.388Z,75.94
2023-04-02T21:16:14.318Z,75.79
2023-04-02T21:18:40.779Z,75.54
2023-04-02T21:21:07.296Z,75.82
2023-04-02T21:23:34.325Z,75.01
2023-04-02T21:26:05.747Z,75.79
2023-04-02T21:28:34.389Z,76.70
2023-04-02T21:31:13.183Z,75.83
2023-04-02T21:33:42.283Z,76.44
2023-04-02T21:36:14.674Z,76.85
2023-04-02T21:38:49.416Z,77.27
2023-04-02T21:41:25.413Z,76.60
2023-04-02T21:43:52.622Z,77.80
2023-04-02T21:46:21.776Z,77.41
2023-04-02T21:48:49.699Z,76.73
2023-04-02T21:51:18.599Z,76.69
2023-04-02T21:53:46.080Z,76.68
2023-04-02T21:56:15.135Z,76.35
2023-04-02T21:58:41.646Z,76.83
2023-04-02T22:01:14.072Z,76.77
2023-04-02T22:03:47.449Z,76.80
2023-04-02T22:06:18.758Z,77.69
2023-04-02T22:08:46.830Z,77.94
2023-04-02T22:11:16.756Z,77.68
2023-04-02T22:13:44.753Z,78.46
2023-04-02T22:16:16.549Z,78.30
2023-04-02T22:18:43.969Z,77.43
2023-04-02T22:21:11.628Z,78.46
2023-04-02T22:23:39.287Z,78.23
2023-04-02T22:26:07.234Z,77.39
2023-04-02T22:28:34.504Z,78.07
2023-04-02T22:31:11.375Z,77.74
2023-04-02T22:33:38.388Z,77.98
2023-04-02T22:36:05.308Z,80.05
2023-04-02T22:38:32.352Z,79.13
2023-04-02T22:41:10.002Z,79.88
2023-04-02T22:43:37.159Z,79.00
2023-04-02T22:46:05.845Z,80.48
2023-04-02T22:48:32.994Z,79.95
2023-04-02T22:50:59.466Z,79.83
2023-04-02T22:53:26.014Z,80.29
2023-04-02T22:55:53.122Z,80.81
2023-04-02T22:58:20.828Z,81.49
2023-04-02T23:00:48.371Z,81.10
2023-04-02T23:03:14.887Z,80.89
2023-04-02T23:05:41.350Z,79.78
2023-04-02T23:08:07.913Z,79.67
2023-04-02T23:10:34.425Z,80.12
2023-04-02T23:13:00.976Z,80.08
2023-04-02T23:15:27.437Z,81.03
2023-04-02T23:17:53.927Z,80.26
2023-04-02T23:20:20.468Z,81.83
2023-04-02T23:22:46.970Z,82.26
2023-04-02T23:25:13.412Z,80.48
2023-04-02T23:27:39.873Z,81.67
2023-04-02T23:30:07.151Z,80.83
2023-04-02T23:32:33.684Z,81.79
2023-04-02T23:35:00.200Z,81.14
2023-04-02T23:37:26.657Z,80.46
2023-04-02T23:39:53.068Z,80.92
2023-04-02T23:42:19.584Z,80.57
2023-04-02T23:44:46.022Z,80.54
2023-04-02T23:47:12.537Z,80.25
2023-04-02T23:49:39.108Z,80.21
2023-04-02T23:52:05.632Z,81.11
2023-04-02T23:54:32.108Z,80.74
2023-04-02T23:56:58.574Z,80.97
2023-04-02T23:59:25.030Z,80.74
